createdAt,value
2019-04-18T00:02:29.134Z,17.00
2019-04-18T00:05:06.389Z,18.30
2019-04-18T00:07:35.705Z,17.37
2019-04-18T00:10:05.571Z,17.67
2019-04-18T00:12:34.955Z,17.83
2019-04-18T00:15:04.781Z,18.70
2019-04-18T00:17:34.093Z,17.50
2019-04-18T00:20:03.509Z,18.63
2019-04-18T00:22:32.858Z,17.80
2019-04-18T00:25:05.058Z,18.70
2019-04-18T00:30:16.912Z,18.30
2019-04-18T00:32:46.494Z,17.70
2019-04-18T00:35:16.006Z,17.80
2019-04-18T00:37:45.295Z,20.10
2019-04-18T00:40:14.572Z,19.10
2019-04-18T00:42:43.860Z,19.23
2019-04-18T00:45:13.148Z,17.73
2019-04-18T00:47:42.728Z,17.93
2019-04-18T00:50:12.199Z,17.33
2019-04-18T00:52:42.252Z,16.20
2019-04-18T00:55:14.413Z,19.60
2019-04-18T00:57:47.362Z,18.23
2019-04-18T01:00:15.603Z,17.17
2019-04-18T01:02:44.876Z,16.50
2019-04-18T01:05:14.185Z,18.43
2019-04-18T01:07:43.473Z,18.03
2019-04-18T01:10:12.965Z,17.93
2019-04-18T01:12:42.254Z,18.23
2019-04-18T01:15:12.118Z,17.63
2019-04-18T01:17:41.433Z,18.40
2019-04-18T01:20:11.206Z,16.80
2019-04-18T01:22:40.482Z,16.67
2019-04-18T01:25:11.469Z,17.13
2019-04-18T01:27:40.744Z,17.67
2019-04-18T01:30:11.883Z,15.40
2019-04-18T01:32:41.291Z,16.20
2019-04-18T01:35:11.091Z,16.17
2019-04-18T01:37:40.381Z,16.63
2019-04-18T01:40:10.055Z,16.27
2019-04-18T01:43:10.450Z,14.97
2019-04-18T01:46:13.766Z,15.90
2019-04-18T01:48:43.519Z,15.10
2019-04-18T01:51:12.825Z,14.43
2019-04-18T01:53:42.129Z,16.80
2019-04-18T01:56:11.425Z,14.87
2019-04-18T01:58:40.947Z,16.33
2019-04-18T02:01:10.702Z,16.23
2019-04-18T02:03:40.095Z,14.90
2019-04-18T02:06:10.712Z,15.00
2019-04-18T02:08:40.147Z,15.70
2019-04-18T02:11:09.804Z,15.13
2019-04-18T02:13:39.294Z,14.70
2019-04-18T02:16:11.429Z,15.10
2019-04-18T02:18:39.703Z,16.30
2019-04-18T02:21:11.447Z,15.60
2019-04-18T02:23:40.137Z,16.40
2019-04-18T02:26:15.013Z,16.23
2019-04-18T02:28:40.467Z,14.63
2019-04-18T02:31:09.857Z,16.30
2019-04-18T02:33:42.235Z,16.03
2019-04-18T02:36:10.248Z,16.60
2019-04-18T02:38:39.533Z,15.40
2019-04-18T02:41:10.078Z,15.73
2019-04-18T02:43:39.814Z,14.60
2019-04-18T02:46:11.533Z,15.03
2019-04-18T02:48:40.105Z,16.30
2019-04-18T02:51:11.451Z,16.53
2019-04-18T02:53:40.384Z,17.63
2019-04-18T02:56:13.325Z,17.13
2019-04-18T02:58:55.707Z,16.83
2019-04-18T03:01:42.537Z,17.10
2019-04-18T03:04:33.914Z,16.40
2019-04-18T03:07:03.188Z,18.53
2019-04-18T03:09:33.660Z,17.67
2019-04-18T03:12:03.877Z,18.73
2019-04-18T03:14:33.280Z,16.87
2019-04-18T03:17:02.945Z,15.00
2019-04-18T03:19:32.425Z,15.73
2019-04-18T03:22:01.920Z,15.20
2019-04-18T03:24:31.517Z,16.17
2019-04-18T03:27:02.413Z,14.60
2019-04-18T03:29:31.883Z,15.37
2019-04-18T03:32:01.531Z,14.30
2019-04-18T03:34:30.941Z,14.30
2019-04-18T03:37:08.243Z,14.70
2019-04-18T03:39:37.707Z,15.23
2019-04-18T03:42:07.000Z,15.23
2019-04-18T03:44:44.806Z,14.70
2019-04-18T03:47:15.165Z,16.50
2019-04-18T03:49:44.906Z,14.27
2019-04-18T03:52:14.178Z,15.87
2019-04-18T03:54:46.882Z,16.77
2019-04-18T03:57:15.299Z,16.40
2019-04-18T03:59:47.906Z,16.40
2019-04-18T04:02:15.716Z,16.50
2019-04-18T04:04:45.001Z,15.73
2019-04-18T04:07:14.292Z,17.10
2019-04-18T04:09:43.965Z,17.03
2019-04-18T04:12:13.257Z,15.40
2019-04-18T04:14:42.535Z,14.87
2019-04-18T04:17:11.914Z,16.37
2019-04-18T04:19:41.585Z,16.10
2019-04-18T04:22:12.730Z,15.60
2019-04-18T04:24:41.900Z,16.10
2019-04-18T04:27:11.202Z,15.80
2019-04-18T04:29:40.920Z,15.60
2019-04-18T04:32:10.203Z,16.87
2019-04-18T04:34:43.567Z,16.50
2019-04-18T04:37:11.385Z,16.33
2019-04-18T04:39:40.653Z,15.83
2019-04-18T04:42:13.818Z,16.27
2019-04-18T04:44:41.398Z,16.53
2019-04-18T04:47:35.672Z,13.80
2019-04-18T04:50:09.051Z,14.20
2019-04-18T04:52:39.850Z,13.30
2019-04-18T04:55:10.485Z,13.87
2019-04-18T04:57:44.831Z,14.47
2019-04-18T05:00:33.285Z,13.53
2019-04-18T05:03:02.634Z,14.07
2019-04-18T05:05:31.904Z,14.20
2019-04-18T05:08:01.225Z,12.87
2019-04-18T05:10:30.536Z,14.03
2019-04-18T05:13:02.067Z,13.37
2019-04-18T05:15:30.819Z,13.40
2019-04-18T05:18:00.131Z,15.47
2019-04-18T05:20:29.411Z,14.23
2019-04-18T05:22:58.797Z,13.60
2019-04-18T05:25:28.096Z,12.43
2019-04-18T05:27:57.443Z,11.83
2019-04-18T05:30:26.745Z,13.50
2019-04-18T05:32:56.019Z,13.87
2019-04-18T05:35:25.711Z,12.07
2019-04-18T05:37:55.453Z,16.80
2019-04-18T05:40:26.695Z,14.20
2019-04-18T05:42:56.053Z,13.97
2019-04-18T05:45:25.386Z,13.70
2019-04-18T05:48:13.733Z,12.07
2019-04-18T05:51:02.019Z,10.13
2019-04-18T05:53:35.744Z,10.27
2019-04-18T05:56:05.737Z,11.47
2019-04-18T05:58:45.144Z,10.50
2019-04-18T06:01:48.598Z,10.60
2019-04-18T06:04:43.143Z,11.53
2019-04-18T06:07:30.233Z,9.93
2019-04-18T06:09:59.507Z,10.93
2019-04-18T06:12:36.565Z,11.93
2019-04-18T06:15:40.860Z,10.33
2019-04-18T06:18:22.442Z,10.30
2019-04-18T06:20:52.113Z,9.80
2019-04-18T06:23:22.741Z,10.70
2019-04-18T06:25:58.110Z,9.43
2019-04-18T06:28:40.458Z,10.57
2019-04-18T06:31:34.892Z,8.47
2019-04-18T06:34:09.713Z,7.93
2019-04-18T06:36:36.246Z,8.87
2019-04-18T06:39:07.689Z,7.87
2019-04-18T06:41:39.011Z,8.60
2019-04-18T06:44:08.396Z,7.67
2019-04-18T06:46:37.807Z,8.80
2019-04-18T06:49:11.725Z,7.67
2019-04-18T06:51:38.055Z,7.40
2019-04-18T06:54:11.245Z,7.40
2019-04-18T06:56:46.069Z,6.00
2019-04-18T06:59:25.257Z,7.10
2019-04-18T07:01:54.527Z,8.30
2019-04-18T07:04:25.053Z,6.67
2019-04-18T07:06:55.845Z,6.80
2019-04-18T07:09:31.899Z,7.50
2019-04-18T07:12:10.790Z,6.50
2019-04-18T07:14:38.961Z,6.00
2019-04-18T07:17:08.643Z,7.10
2019-04-18T07:19:45.017Z,6.70
2019-04-18T07:22:32.771Z,7.10
2019-04-18T07:25:01.378Z,5.20
2019-04-18T07:27:30.709Z,7.10
2019-04-18T07:30:02.570Z,6.67
2019-04-18T07:32:31.053Z,6.00
2019-04-18T07:35:00.351Z,6.23
2019-04-18T07:37:29.633Z,6.33
2019-04-18T07:39:58.917Z,5.97
2019-04-18T07:42:28.271Z,6.47
2019-04-18T07:44:57.524Z,6.50
2019-04-18T07:47:46.629Z,6.17
2019-04-18T07:50:19.502Z,6.73
2019-04-18T07:52:48.879Z,6.37
2019-04-18T07:55:37.790Z,6.60
2019-04-18T07:58:07.193Z,6.03
2019-04-18T08:00:38.360Z,5.57
2019-04-18T08:03:11.229Z,6.43
2019-04-18T08:05:38.645Z,5.83
2019-04-18T08:08:08.432Z,6.80
2019-04-18T08:10:37.772Z,6.03
2019-04-18T08:13:07.078Z,5.97
2019-04-18T08:15:36.328Z,6.13
2019-04-18T08:18:05.718Z,6.53
2019-04-18T08:20:36.502Z,7.43
2019-04-18T08:23:18.248Z,5.50
2019-04-18T08:25:36.944Z,5.80
2019-04-18T08:28:07.930Z,6.90
2019-04-18T08:30:37.628Z,6.90
2019-04-18T08:33:06.899Z,6.30
2019-04-18T08:35:53.742Z,6.40
2019-04-18T08:38:32.845Z,6.60
2019-04-18T08:41:06.155Z,7.70
2019-04-18T08:43:43.399Z,5.33
2019-04-18T08:46:13.690Z,6.90
2019-04-18T08:48:43.087Z,7.07
2019-04-18T08:51:25.338Z,5.80
2019-04-18T08:53:59.198Z,5.77
2019-04-18T08:56:31.468Z,5.90
2019-04-18T08:59:02.165Z,6.77
2019-04-18T09:01:31.460Z,7.60
2019-04-18T09:04:01.165Z,6.70
2019-04-18T09:06:34.421Z,7.90
2019-04-18T09:09:01.765Z,6.70
2019-04-18T09:11:32.407Z,7.07
2019-04-18T09:14:06.720Z,6.57
2019-04-18T09:16:45.350Z,7.00
2019-04-18T09:19:17.179Z,7.33
2019-04-18T09:21:51.122Z,6.50
2019-04-18T09:24:23.421Z,7.87
2019-04-18T09:26:51.605Z,7.43
2019-04-18T09:29:21.098Z,8.07
2019-04-18T09:31:50.376Z,7.37
2019-04-18T09:34:20.457Z,7.23
2019-04-18T09:36:49.874Z,7.47
2019-04-18T09:39:19.183Z,6.93
2019-04-18T09:41:48.457Z,5.57
2019-04-18T09:44:19.542Z,6.17
2019-04-18T09:46:49.150Z,6.03
2019-04-18T09:49:18.634Z,5.67
2019-04-18T09:51:48.093Z,6.43
2019-04-18T09:54:17.405Z,6.20
2019-04-18T09:56:46.714Z,7.90
2019-04-18T09:59:15.994Z,6.37
2019-04-18T10:01:45.370Z,6.33
2019-04-18T10:04:14.636Z,6.60
2019-04-18T10:06:44.044Z,5.63
2019-04-18T10:09:13.337Z,5.60
2019-04-18T10:11:43.034Z,5.00
2019-04-18T10:14:12.215Z,5.27
2019-04-18T10:16:41.546Z,5.07
2019-04-18T10:19:11.358Z,4.40
2019-04-18T10:21:48.369Z,4.90
2019-04-18T10:24:19.628Z,4.63
2019-04-18T10:26:55.012Z,4.90
2019-04-18T10:29:32.729Z,4.20
2019-04-18T10:32:02.037Z,4.70
2019-04-18T10:34:31.319Z,4.37
2019-04-18T10:37:00.931Z,4.60
2019-04-18T10:39:30.206Z,5.37
2019-04-18T10:41:59.490Z,4.70
2019-04-18T10:44:28.760Z,5.27
2019-04-18T10:46:58.064Z,5.17
2019-04-18T10:49:27.340Z,4.60
2019-04-18T10:51:56.648Z,4.07
2019-04-18T10:54:25.938Z,4.63
2019-04-18T10:56:55.259Z,4.33
2019-04-18T10:59:24.529Z,5.07
2019-04-18T11:01:53.880Z,4.43
2019-04-18T11:04:23.323Z,5.10
2019-04-18T11:06:52.637Z,4.50
2019-04-18T11:09:22.252Z,3.70
2019-04-18T11:11:55.632Z,4.67
2019-04-18T11:14:23.048Z,4.77
2019-04-18T11:16:52.325Z,4.87
2019-04-18T11:19:21.612Z,4.20
2019-04-18T11:21:50.901Z,5.40
2019-04-18T11:24:20.237Z,5.30
2019-04-18T11:26:49.901Z,4.90
2019-04-18T11:29:19.254Z,5.40
2019-04-18T11:31:48.506Z,5.60
2019-04-18T11:34:17.889Z,5.40
2019-04-18T11:36:47.584Z,5.40
2019-04-18T11:39:17.460Z,5.17
2019-04-18T11:41:47.881Z,4.77
2019-04-18T11:44:17.200Z,5.27
2019-04-18T11:46:46.594Z,5.53
2019-04-18T11:49:15.891Z,5.40
2019-04-18T11:51:45.156Z,6.07
2019-04-18T11:54:14.443Z,5.07
2019-04-18T11:56:44.125Z,5.23
2019-04-18T11:59:20.637Z,5.40
2019-04-18T12:01:54.545Z,5.47
2019-04-18T12:04:30.880Z,5.57
2019-04-18T12:07:02.392Z,5.50
2019-04-18T12:09:31.293Z,5.47
2019-04-18T12:12:01.503Z,4.67
2019-04-18T12:14:31.084Z,5.27
2019-04-18T12:17:00.404Z,5.80
2019-04-18T12:19:29.668Z,5.70
2019-04-18T12:21:58.947Z,5.43
2019-04-18T12:24:28.232Z,5.03
2019-04-18T12:26:57.906Z,5.20
2019-04-18T12:29:27.186Z,4.60
2019-04-18T12:31:56.840Z,4.30
2019-04-18T12:34:26.156Z,4.63
2019-04-18T12:36:55.694Z,6.00
2019-04-18T12:39:24.967Z,4.90
2019-04-18T12:41:54.257Z,5.30
2019-04-18T12:44:24.009Z,4.30
2019-04-18T12:46:53.351Z,5.40
2019-04-18T12:49:22.609Z,4.70
2019-04-18T12:52:08.088Z,5.17
2019-04-18T12:54:23.017Z,5.63
2019-04-18T12:56:52.297Z,4.93
2019-04-18T12:59:21.559Z,4.87
2019-04-18T13:01:50.865Z,4.40
2019-04-18T13:04:20.128Z,5.50
2019-04-18T13:06:49.413Z,5.50
2019-04-18T13:09:40.398Z,4.87
2019-04-18T13:12:31.658Z,4.90
2019-04-18T13:15:20.323Z,5.10
2019-04-18T13:17:52.448Z,4.93
2019-04-18T13:20:21.779Z,5.20
2019-04-18T13:22:51.407Z,5.17
2019-04-18T13:25:20.683Z,5.20
2019-04-18T13:27:50.048Z,4.53
2019-04-18T13:30:19.939Z,4.97
2019-04-18T13:32:49.298Z,4.53
2019-04-18T13:35:18.661Z,4.27
2019-04-18T13:37:47.964Z,4.17
2019-04-18T13:40:18.013Z,4.93
2019-04-18T13:42:47.292Z,4.40
2019-04-18T13:45:16.756Z,4.43
2019-04-18T13:47:46.520Z,4.47
2019-04-18T13:50:17.033Z,4.67
2019-04-18T13:52:47.492Z,5.20
2019-04-18T13:55:17.233Z,4.17
2019-04-18T13:57:46.938Z,4.47
2019-04-18T14:00:17.327Z,3.20
2019-04-18T14:02:46.796Z,3.60
2019-04-18T14:05:16.157Z,3.70
2019-04-18T14:07:45.641Z,4.30
2019-04-18T14:10:15.140Z,3.67
2019-04-18T14:12:44.408Z,3.70
2019-04-18T14:15:13.921Z,3.67
2019-04-18T14:17:43.206Z,3.60
2019-04-18T14:20:13.183Z,3.60
2019-04-18T14:22:42.515Z,3.90
2019-04-18T14:25:12.126Z,3.70
2019-04-18T14:27:42.378Z,3.97
2019-04-18T14:30:11.751Z,3.77
2019-04-18T14:32:41.105Z,4.10
2019-04-18T14:35:11.385Z,3.53
2019-04-18T14:37:40.937Z,4.10
2019-04-18T14:40:10.601Z,3.70
2019-04-18T14:42:43.919Z,4.03
2019-04-18T14:45:13.217Z,4.03
2019-04-18T14:47:42.804Z,3.63
2019-04-18T14:50:12.580Z,4.17
2019-04-18T14:52:41.912Z,3.53
2019-04-18T14:55:11.402Z,3.40
2019-04-18T14:57:40.665Z,3.70
2019-04-18T15:00:11.268Z,3.40
2019-04-18T15:02:49.095Z,3.40
2019-04-18T15:05:13.943Z,4.90
2019-04-18T15:07:43.432Z,4.17
2019-04-18T15:10:15.226Z,3.90
2019-04-18T15:12:44.830Z,3.87
2019-04-18T15:15:15.860Z,3.93
2019-04-18T15:17:45.196Z,4.20
2019-04-18T15:20:16.947Z,3.33
2019-04-18T15:22:46.236Z,3.77
2019-04-18T15:25:17.389Z,3.60
2019-04-18T15:27:46.779Z,4.37
2019-04-18T15:30:16.457Z,3.83
2019-04-18T15:32:45.732Z,3.77
2019-04-18T15:35:15.654Z,3.60
2019-04-18T15:37:45.001Z,3.83
2019-04-18T15:40:20.706Z,3.50
2019-04-18T15:42:50.373Z,3.70
2019-04-18T15:45:29.651Z,3.77
2019-04-18T15:48:00.444Z,3.97
2019-04-18T15:50:30.040Z,3.43
2019-04-18T15:53:01.753Z,3.97
2019-04-18T15:55:30.447Z,3.80
2019-04-18T15:57:59.729Z,4.57
2019-04-18T16:00:30.333Z,4.10
2019-04-18T16:02:59.598Z,3.00
2019-04-18T16:05:30.773Z,3.10
2019-04-18T16:08:04.073Z,3.50
2019-04-18T16:10:31.924Z,3.77
2019-04-18T16:13:01.490Z,3.93
2019-04-18T16:15:30.849Z,3.93
2019-04-18T16:18:00.144Z,3.07
2019-04-18T16:20:30.134Z,4.20
2019-04-18T16:22:59.391Z,3.40
2019-04-18T16:25:28.686Z,3.07
2019-04-18T16:27:58.331Z,3.40
2019-04-18T16:30:28.687Z,3.70
2019-04-18T16:32:58.066Z,3.27
2019-04-18T16:35:27.980Z,3.90
2019-04-18T16:37:57.712Z,3.10
2019-04-18T16:40:27.384Z,2.87
2019-04-18T16:42:56.717Z,3.00
2019-04-18T16:45:26.103Z,3.60
2019-04-18T16:47:55.457Z,3.70
2019-04-18T16:50:25.012Z,3.40
2019-04-18T16:52:54.339Z,3.10
2019-04-18T16:55:23.756Z,2.70
2019-04-18T16:57:53.479Z,3.50
2019-04-18T17:00:35.385Z,3.40
2019-04-18T17:03:05.099Z,3.80
2019-04-18T17:05:34.461Z,3.20
2019-04-18T17:08:04.279Z,3.27
2019-04-18T17:10:33.684Z,2.90
2019-04-18T17:13:03.100Z,3.40
2019-04-18T17:15:33.747Z,2.70
2019-04-18T17:18:03.071Z,3.20
2019-04-18T17:20:34.194Z,3.53
2019-04-18T17:23:25.085Z,3.00
2019-04-18T17:25:55.259Z,2.77
2019-04-18T17:28:25.337Z,2.90
2019-04-18T17:30:57.097Z,3.00
2019-04-18T17:33:26.393Z,2.90
2019-04-18T17:36:12.002Z,3.33
2019-04-18T17:38:48.422Z,2.80
2019-04-18T17:41:06.238Z,2.83
2019-04-18T17:43:29.728Z,3.47
2019-04-18T17:46:05.167Z,3.57
2019-04-18T17:48:35.427Z,3.57
2019-04-18T17:51:09.874Z,3.30
2019-04-18T17:53:50.214Z,4.17
2019-04-18T17:56:15.943Z,3.70
2019-04-18T17:58:40.587Z,2.90
2019-04-18T18:01:10.917Z,3.30
2019-04-18T18:03:49.331Z,2.90
2019-04-18T18:06:20.763Z,3.53
2019-04-18T18:08:50.010Z,3.70
2019-04-18T18:11:16.728Z,2.97
2019-04-18T18:13:47.441Z,3.73
2019-04-18T18:16:26.835Z,3.77
2019-04-18T18:18:53.423Z,3.00
2019-04-18T18:21:28.036Z,3.83
2019-04-18T18:24:10.018Z,3.20
2019-04-18T18:26:42.785Z,3.80
2019-04-18T18:29:11.897Z,3.73
2019-04-18T18:31:46.800Z,3.77
2019-04-18T18:34:15.650Z,4.13
2019-04-18T18:37:02.624Z,3.73
2019-04-18T18:39:37.772Z,3.83
2019-04-18T18:42:04.295Z,4.03
2019-04-18T18:44:40.824Z,3.80
2019-04-18T18:47:05.397Z,4.10
2019-04-18T18:49:35.932Z,4.10
2019-04-18T18:52:05.913Z,3.70
2019-04-18T18:54:41.272Z,3.50
2019-04-18T18:57:11.885Z,3.83
2019-04-18T18:59:39.118Z,3.40
2019-04-18T19:02:14.432Z,3.83
2019-04-18T19:04:39.940Z,3.47
2019-04-18T19:07:11.360Z,3.80
2019-04-18T19:09:54.128Z,4.07
2019-04-18T19:12:18.867Z,4.10
2019-04-18T19:14:57.117Z,3.93
2019-04-18T19:17:20.414Z,3.70
2019-04-18T19:19:48.400Z,3.73
2019-04-18T19:22:19.202Z,4.50
2019-04-18T19:24:56.478Z,4.00
2019-04-18T19:27:29.858Z,4.17
2019-04-18T19:29:59.193Z,4.30
2019-04-18T19:32:22.818Z,4.00
2019-04-18T19:34:58.128Z,10.10
2019-04-18T19:37:35.821Z,13.47
2019-04-18T19:40:16.682Z,32.27
2019-04-18T19:42:30.586Z,50.43
2019-04-18T19:45:06.989Z,28.90
2019-04-18T19:47:37.479Z,18.97
2019-04-18T19:50:11.396Z,13.73
2019-04-18T19:52:48.610Z,16.70
2019-04-18T19:55:26.153Z,8.93
2019-04-18T19:57:59.840Z,5.87
2019-04-18T20:00:30.516Z,4.80
2019-04-18T20:02:59.998Z,4.83
2019-04-18T20:05:57.616Z,4.90
2019-04-18T20:08:13.556Z,6.90
2019-04-18T20:10:43.712Z,5.60
2019-04-18T20:13:12.447Z,5.17
2019-04-18T20:15:39.300Z,5.00
2019-04-18T20:18:19.054Z,5.60
2019-04-18T20:20:56.133Z,5.40
2019-04-18T20:23:26.411Z,5.73
2019-04-18T20:25:56.064Z,6.43
2019-04-18T20:28:27.002Z,4.97
2019-04-18T20:31:02.101Z,5.57
2019-04-18T20:33:34.821Z,6.10
2019-04-18T20:36:43.065Z,5.77
2019-04-18T20:39:14.549Z,6.53
2019-04-18T20:41:55.463Z,6.07
2019-04-18T20:44:08.138Z,5.70
2019-04-18T20:46:32.638Z,5.73
2019-04-18T20:49:24.866Z,6.07
2019-04-18T20:51:47.269Z,6.83
2019-04-18T20:54:23.669Z,6.23
2019-04-18T20:56:39.560Z,5.30
2019-04-18T20:59:17.324Z,5.80
2019-04-18T21:01:41.336Z,6.00
2019-04-18T21:04:24.708Z,6.20
2019-04-18T21:07:09.201Z,4.80
2019-04-18T21:16:10.950Z,6.90
2019-04-18T21:18:51.538Z,6.03
2019-04-18T21:21:15.333Z,5.50
2019-04-18T21:24:04.086Z,5.80
2019-04-18T21:26:36.033Z,6.27
2019-04-18T21:29:15.781Z,5.07
2019-04-18T21:31:48.640Z,5.13
2019-04-18T21:34:30.738Z,6.00
2019-04-18T21:37:23.928Z,6.53
2019-04-18T21:39:43.569Z,6.47
2019-04-18T21:42:18.877Z,6.60
2019-04-18T21:44:51.236Z,5.93
2019-04-18T21:47:34.626Z,7.17
2019-04-18T21:50:04.499Z,7.50
2019-04-18T21:52:32.196Z,5.90
2019-04-18T21:55:02.736Z,6.57
2019-04-18T21:57:36.529Z,6.77
2019-04-18T22:00:13.139Z,7.70
2019-04-18T22:02:40.076Z,7.53
2019-04-18T22:06:11.050Z,7.17
2019-04-18T22:12:30.986Z,6.67
2019-04-18T22:15:00.778Z,7.03
2019-04-18T22:17:28.577Z,7.03
2019-04-18T22:19:58.072Z,8.50
2019-04-18T22:22:29.834Z,7.60
2019-04-18T22:25:02.726Z,7.30
2019-04-18T22:27:29.880Z,7.43
2019-04-18T22:30:04.211Z,7.80
2019-04-18T22:32:33.022Z,6.73
2019-04-18T22:35:08.223Z,6.97
2019-04-18T22:37:44.176Z,7.33
2019-04-18T22:40:14.185Z,7.90
2019-04-18T22:42:39.960Z,6.80
2019-04-18T22:45:10.572Z,7.23
2019-04-18T22:47:47.560Z,6.70
2019-04-18T22:50:11.780Z,6.33
2019-04-18T22:52:42.640Z,7.40
2019-04-18T22:55:16.247Z,6.70
2019-04-18T22:57:44.274Z,7.50
2019-04-18T23:00:17.868Z,7.47
2019-04-18T23:02:46.225Z,7.13
2019-04-18T23:05:16.680Z,6.33
2019-04-18T23:07:52.219Z,6.83
2019-04-18T23:10:21.607Z,7.50
2019-04-18T23:12:48.980Z,7.10
2019-04-18T23:15:24.956Z,6.70
2019-04-18T23:17:49.986Z,6.63
2019-04-18T23:20:24.352Z,7.00
2019-04-18T23:22:51.553Z,6.40
2019-04-18T23:25:27.390Z,6.27
2019-04-18T23:27:53.050Z,8.53
2019-04-18T23:31:22.995Z,6.90
2019-04-18T23:37:25.541Z,6.60
2019-04-18T23:40:12.223Z,7.40
2019-04-18T23:42:49.167Z,6.83
2019-04-18T23:45:16.452Z,7.57
2019-04-18T23:47:50.470Z,7.33
2019-04-18T23:50:17.983Z,6.90
2019-04-18T23:52:47.395Z,7.73
2019-04-18T23:55:19.905Z,7.73
2019-04-18T23:57:51.115Z,6.77
